createdAt,value
2022-11-05T03:28:46.934Z,80.56
2022-11-05T03:31:14.181Z,80.99
2022-11-05T03:33:41.942Z,81.70
2022-11-05T03:36:14.269Z,80.88
2022-11-05T03:38:42.687Z,79.92
2022-11-05T03:41:11.176Z,80.10
2022-11-05T03:43:40.987Z,80.89
2022-11-05T03:46:15.414Z,82.09
2022-11-05T03:48:45.455Z,81.29
2022-11-05T03:51:19.262Z,80.44
2022-11-05T03:58:20.679Z,82.17
2022-11-05T04:00:48.526Z,82.19
2022-11-05T04:03:15.725Z,81.29
2022-11-05T04:05:42.754Z,81.22
2022-11-05T04:08:28.657Z,81.66
2022-11-05T04:11:14.324Z,82.60
2022-11-05T04:13:41.506Z,81.70
2022-11-05T04:16:34.862Z,81.26
2022-11-05T04:19:02.121Z,81.69
2022-11-05T04:21:48.150Z,82.38
2022-11-05T04:24:15.171Z,82.43
2022-11-05T04:26:43.947Z,81.34
2022-11-05T04:29:30.048Z,81.01
2022-11-05T04:31:57.332Z,81.63
2022-11-05T04:34:24.778Z,82.44
2022-11-05T04:36:52.605Z,82.33
2022-11-05T04:39:19.961Z,80.74
2022-11-05T04:41:50.182Z,80.29
2022-11-05T04:44:17.470Z,80.72
2022-11-05T04:46:44.684Z,81.53
2022-11-05T04:49:12.046Z,82.60
2022-11-05T04:51:39.290Z,81.77
2022-11-05T04:54:06.446Z,80.71
2022-11-05T04:56:33.751Z,80.67
2022-11-05T04:59:00.953Z,81.07
2022-11-05T05:01:28.163Z,81.86
2022-11-05T05:03:55.419Z,81.80
2022-11-05T05:06:22.912Z,80.28
2022-11-05T05:08:51.287Z,79.67
2022-11-05T05:11:20.096Z,80.03
2022-11-05T05:13:48.041Z,80.74
2022-11-05T05:16:25.637Z,81.65
2022-11-05T05:18:52.995Z,80.73
2022-11-05T05:21:40.684Z,79.75
2022-11-05T05:24:16.864Z,79.83
2022-11-05T05:26:45.478Z,80.63
2022-11-05T05:29:13.059Z,81.39
2022-11-05T05:31:40.380Z,81.46
2022-11-05T05:34:08.033Z,80.03
2022-11-05T05:36:35.030Z,79.61
2022-11-05T05:39:02.342Z,80.09
2022-11-05T05:41:29.442Z,80.80
2022-11-05T05:43:56.640Z,81.68
2022-11-05T05:46:23.904Z,81.13
2022-11-05T05:48:51.893Z,80.36
2022-11-05T05:51:19.424Z,80.17
2022-11-05T05:53:46.680Z,80.68
2022-11-05T05:56:15.310Z,81.49
2022-11-05T05:58:42.616Z,81.66
2022-11-05T06:01:18.280Z,80.48
2022-11-05T06:03:46.357Z,80.49
2022-11-05T06:06:14.398Z,80.88
2022-11-05T06:08:42.068Z,81.47
2022-11-05T06:11:09.481Z,81.85
2022-11-05T06:13:37.119Z,80.70
2022-11-05T06:16:05.830Z,80.65
2022-11-05T06:18:33.514Z,81.19
2022-11-05T06:21:11.634Z,81.93
2022-11-05T06:23:39.656Z,82.49
2022-11-05T06:26:14.397Z,81.24
2022-11-05T06:28:42.421Z,81.09
2022-11-05T06:31:10.598Z,81.33
2022-11-05T06:33:37.764Z,81.88
2022-11-05T06:36:05.754Z,82.35
2022-11-05T06:38:34.273Z,81.30
2022-11-05T06:41:07.184Z,80.98
2022-11-05T06:43:37.263Z,81.76
2022-11-05T06:46:05.454Z,82.35
2022-11-05T06:48:32.603Z,82.99
2022-11-05T06:50:59.781Z,81.66
2022-11-05T06:53:27.207Z,81.10
2022-11-05T06:55:54.348Z,81.69
2022-11-05T06:58:21.520Z,82.52
2022-11-05T07:00:48.808Z,83.12
2022-11-05T07:03:16.244Z,81.87
2022-11-05T07:05:45.895Z,81.32
2022-11-05T07:08:13.047Z,81.64
2022-11-05T07:10:40.172Z,82.14
2022-11-05T07:13:08.649Z,83.00
2022-11-05T07:15:36.848Z,82.14
2022-11-05T07:18:04.540Z,81.12
2022-11-05T07:20:34.228Z,81.40
2022-11-05T07:23:06.590Z,81.85
2022-11-05T07:25:34.085Z,82.82
2022-11-05T07:28:01.641Z,82.54
2022-11-05T07:30:29.430Z,81.42
2022-11-05T07:32:56.799Z,80.60
2022-11-05T07:35:24.155Z,80.78
2022-11-05T07:37:52.385Z,81.81
2022-11-05T07:40:19.829Z,82.61
2022-11-05T07:42:52.083Z,81.84
2022-11-05T07:45:19.365Z,81.10
2022-11-05T07:47:51.228Z,81.33
2022-11-05T07:50:19.425Z,82.08
2022-11-05T07:52:46.754Z,83.12
2022-11-05T07:55:14.074Z,82.32
2022-11-05T07:57:48.832Z,81.48
2022-11-05T08:00:18.458Z,82.04
2022-11-05T08:03:06.873Z,82.30
2022-11-05T08:05:39.499Z,83.16
2022-11-05T08:08:08.284Z,81.88
2022-11-05T08:10:36.134Z,80.81
2022-11-05T08:13:03.184Z,80.95
2022-11-05T08:15:30.279Z,81.35
2022-11-05T08:18:01.176Z,82.21
2022-11-05T08:20:28.521Z,81.88
2022-11-05T08:22:56.431Z,79.68
2022-11-05T08:25:23.728Z,79.23
2022-11-05T08:28:01.377Z,79.59
2022-11-05T08:30:28.882Z,80.83
2022-11-05T08:33:07.395Z,81.62
2022-11-05T08:35:35.899Z,81.18
2022-11-05T08:38:04.769Z,79.83
2022-11-05T08:40:33.995Z,80.08
2022-11-05T08:43:02.841Z,80.73
2022-11-05T08:45:30.112Z,81.63
2022-11-05T08:48:15.137Z,81.67
2022-11-05T08:50:42.284Z,80.24
2022-11-05T08:53:09.729Z,80.32
2022-11-05T08:55:38.666Z,80.88
2022-11-05T08:58:07.788Z,81.82
2022-11-05T09:00:36.256Z,81.89
2022-11-05T09:03:04.982Z,80.81
2022-11-05T09:05:32.806Z,80.46
2022-11-05T09:08:01.603Z,81.31
2022-11-05T09:10:29.158Z,82.02
2022-11-05T09:12:56.405Z,81.25
2022-11-05T09:15:24.645Z,80.57
2022-11-05T09:17:51.751Z,80.42
2022-11-05T09:20:18.958Z,81.49
2022-11-05T09:22:46.995Z,81.52
2022-11-05T09:25:16.056Z,80.87
2022-11-05T09:27:43.857Z,80.00
2022-11-05T09:30:12.434Z,80.36
2022-11-05T09:32:39.753Z,80.76
2022-11-05T09:35:07.752Z,81.44
2022-11-05T09:37:36.312Z,80.32
2022-11-05T09:40:03.982Z,79.68
2022-11-05T09:42:39.772Z,80.22
2022-11-05T09:45:20.733Z,81.09
2022-11-05T09:47:57.034Z,81.55
2022-11-05T09:50:35.830Z,80.37
2022-11-05T09:53:03.159Z,80.31
2022-11-05T09:55:34.374Z,81.07
2022-11-05T09:58:06.849Z,81.78
2022-11-05T10:00:34.012Z,80.36
2022-11-05T10:03:07.090Z,79.55
2022-11-05T10:05:34.387Z,80.40
2022-11-05T10:08:11.660Z,81.25
2022-11-05T10:10:42.769Z,81.55
2022-11-05T10:13:25.592Z,80.29
2022-11-05T10:15:58.952Z,80.15
2022-11-05T10:18:33.144Z,80.34
2022-11-05T10:21:00.357Z,80.97
2022-11-05T10:23:27.808Z,81.16
2022-11-05T10:26:02.477Z,79.77
2022-11-05T10:28:30.846Z,79.50
2022-11-05T10:31:00.001Z,79.81
2022-11-05T10:33:35.347Z,80.87
2022-11-05T10:36:08.236Z,80.58
2022-11-05T10:38:35.336Z,79.38
2022-11-05T10:41:02.629Z,79.07
2022-11-05T10:43:46.571Z,79.56
2022-11-05T10:46:32.622Z,80.75
2022-11-05T10:49:18.964Z,80.89
2022-11-05T10:51:47.240Z,80.21
2022-11-05T10:54:18.597Z,79.89
2022-11-05T10:56:46.000Z,80.79
2022-11-05T10:59:39.471Z,81.43
2022-11-05T11:02:26.163Z,80.26
2022-11-05T11:04:53.707Z,80.57
2022-11-05T11:07:23.100Z,81.23
2022-11-05T11:09:50.888Z,82.03
2022-11-05T11:12:22.214Z,80.66
2022-11-05T11:15:13.622Z,79.90
2022-11-05T11:17:40.777Z,80.38
2022-11-05T11:20:26.493Z,81.25
2022-11-05T11:23:01.169Z,81.63
2022-11-05T11:25:48.379Z,79.96
2022-11-05T11:28:29.774Z,80.02
2022-11-05T11:31:05.526Z,80.82
2022-11-05T11:33:32.695Z,81.34
2022-11-05T11:36:00.322Z,80.86
2022-11-05T11:38:30.615Z,79.51
2022-11-05T11:41:20.165Z,79.64
2022-11-05T11:43:47.387Z,80.42
2022-11-05T11:46:18.011Z,81.07
2022-11-05T11:48:47.737Z,80.15
2022-11-05T11:51:28.808Z,79.39
2022-11-05T11:54:00.074Z,80.02
2022-11-05T11:56:27.831Z,80.93
2022-11-05T11:59:01.651Z,81.57
2022-11-05T12:02:03.939Z,80.35
2022-11-05T12:04:52.290Z,80.02
2022-11-05T12:07:53.505Z,81.08
2022-11-05T12:10:46.597Z,82.18
2022-11-05T12:13:24.467Z,81.36
2022-11-05T12:15:56.325Z,80.52
2022-11-05T12:18:43.642Z,80.65
2022-11-05T12:21:41.039Z,82.01
2022-11-05T12:24:21.348Z,81.25
2022-11-05T12:26:55.785Z,80.39
2022-11-05T12:29:36.137Z,80.87
2022-11-05T12:32:13.253Z,82.02
2022-11-05T12:34:50.097Z,82.42
2022-11-05T12:37:22.472Z,81.19
2022-11-05T12:40:17.789Z,80.68
2022-11-05T12:43:03.593Z,81.58
2022-11-05T12:46:05.051Z,82.51
2022-11-05T12:48:58.896Z,81.79
2022-11-05T12:51:54.034Z,81.49
2022-11-05T12:54:40.206Z,81.76
2022-11-05T12:57:09.240Z,82.66
2022-11-05T12:59:42.892Z,82.06
2022-11-05T13:02:48.247Z,81.50
2022-11-05T13:05:42.523Z,82.38
2022-11-05T13:08:12.688Z,83.64
2022-11-05T13:10:42.086Z,82.98
2022-11-05T13:13:19.337Z,82.56
2022-11-05T13:16:09.836Z,82.61
2022-11-05T13:19:03.812Z,84.14
2022-11-05T13:21:31.174Z,83.36
2022-11-05T13:24:03.841Z,82.20
2022-11-05T13:26:54.443Z,82.74
2022-11-05T13:29:44.530Z,83.91
2022-11-05T13:32:38.824Z,83.72
2022-11-05T13:35:08.996Z,82.98
2022-11-05T13:38:01.188Z,83.00
2022-11-05T13:41:13.076Z,84.10
2022-11-05T13:43:48.109Z,83.06
2022-11-05T13:46:54.787Z,81.53
2022-11-05T13:49:47.434Z,82.25
2022-11-05T13:52:32.201Z,83.77
2022-11-05T13:55:34.167Z,83.42
2022-11-05T13:58:05.205Z,82.67
2022-11-05T14:00:39.684Z,82.93
2022-11-05T14:03:14.497Z,83.97
2022-11-05T14:05:42.215Z,83.38
2022-11-05T14:08:16.786Z,82.62
2022-11-05T14:10:45.632Z,82.39
2022-11-05T14:13:25.373Z,83.02
2022-11-05T14:16:04.506Z,83.52
2022-11-05T14:18:38.106Z,82.41
2022-11-05T14:21:06.694Z,82.27
2022-11-05T14:23:39.265Z,82.66
2022-11-05T14:26:24.637Z,83.38
2022-11-05T14:29:15.387Z,82.80
2022-11-05T14:32:10.502Z,82.38
2022-11-05T14:35:04.526Z,82.81
2022-11-05T14:38:01.480Z,83.12
2022-11-05T14:40:37.262Z,81.79
2022-11-05T14:43:19.533Z,81.78
2022-11-05T14:45:57.536Z,82.73
2022-11-05T14:48:49.263Z,82.87
2022-11-05T14:51:26.067Z,81.82
2022-11-05T14:54:27.705Z,82.00
2022-11-05T14:57:00.213Z,83.24
2022-11-05T14:59:28.859Z,82.77
2022-11-05T15:01:57.571Z,82.06
2022-11-05T15:04:37.900Z,82.05
2022-11-05T15:07:06.381Z,83.05
2022-11-05T15:09:45.512Z,83.62
2022-11-05T15:12:22.594Z,82.17
2022-11-05T15:15:05.123Z,82.03
2022-11-05T15:17:40.808Z,83.13
2022-11-05T15:20:15.428Z,83.54
2022-11-05T15:22:44.915Z,82.63
2022-11-05T15:25:21.973Z,82.67
2022-11-05T15:28:05.805Z,83.44
2022-11-05T15:30:33.366Z,83.77
2022-11-05T15:33:20.938Z,82.39
2022-11-05T15:35:48.452Z,82.20
2022-11-05T15:38:34.960Z,82.70
2022-11-05T15:41:07.337Z,83.75
2022-11-05T15:43:34.888Z,82.50
2022-11-05T15:46:06.861Z,81.97
2022-11-05T15:48:34.857Z,82.63
2022-11-05T15:51:02.377Z,83.63
2022-11-05T15:56:52.806Z,81.92
2022-11-05T15:59:21.580Z,82.76
2022-11-05T16:01:56.881Z,83.37
2022-11-05T16:04:29.603Z,81.95
2022-11-05T16:07:00.607Z,81.98
2022-11-05T16:09:29.904Z,82.44
2022-11-05T16:12:19.005Z,83.37
2022-11-05T16:15:05.099Z,82.43
2022-11-05T16:17:50.928Z,81.88
2022-11-05T16:20:33.623Z,82.48
2022-11-05T16:23:03.801Z,83.26
2022-11-05T16:25:41.440Z,81.82
2022-11-05T16:28:29.102Z,81.79
2022-11-05T16:31:00.104Z,82.68
2022-11-05T16:33:48.663Z,82.94
2022-11-05T16:36:16.299Z,81.74
2022-11-05T16:38:43.857Z,81.53
2022-11-05T16:41:19.136Z,82.36
2022-11-05T16:43:57.383Z,82.56
2022-11-05T16:46:26.822Z,81.14
2022-11-05T16:48:54.478Z,80.56
2022-11-05T16:51:27.192Z,81.34
2022-11-05T16:53:55.121Z,82.51
2022-11-05T16:56:22.788Z,81.78
2022-11-05T16:58:50.373Z,80.91
2022-11-05T17:01:23.054Z,81.52
2022-11-05T17:03:52.019Z,82.58
2022-11-05T17:06:21.007Z,81.24
2022-11-05T17:08:48.772Z,80.74
2022-11-05T17:11:17.868Z,81.08
2022-11-05T17:13:45.545Z,81.75
2022-11-05T17:16:14.728Z,81.96
2022-11-05T17:18:42.433Z,80.98
2022-11-05T17:21:10.625Z,81.04
2022-11-05T17:23:38.122Z,81.35
2022-11-05T17:26:07.940Z,82.00
2022-11-05T17:28:35.800Z,81.15
2022-11-05T17:31:04.902Z,80.54
2022-11-05T17:33:32.556Z,81.13
2022-11-05T17:36:00.526Z,81.92
2022-11-05T17:38:28.086Z,81.54
2022-11-05T17:40:55.747Z,81.12
2022-11-05T17:43:23.206Z,81.46
2022-11-05T17:45:52.263Z,82.29
2022-11-05T17:48:20.574Z,82.11
2022-11-05T17:50:49.295Z,81.67
2022-11-05T17:53:18.779Z,81.28
2022-11-05T17:55:46.935Z,82.43
2022-11-05T17:58:14.498Z,82.50
2022-11-05T18:00:42.496Z,81.46
2022-11-05T18:03:11.199Z,81.35
2022-11-05T18:05:40.353Z,81.77
2022-11-05T18:08:08.216Z,82.30
2022-11-05T18:10:39.585Z,81.63
2022-11-05T18:13:07.336Z,80.56
2022-11-05T18:15:35.912Z,81.42
2022-11-05T18:18:03.368Z,81.92
2022-11-05T18:20:30.929Z,81.41
2022-11-05T18:22:58.696Z,80.60
2022-11-05T18:25:26.168Z,81.07
2022-11-05T18:27:53.603Z,81.56
2022-11-05T18:30:21.101Z,81.81
2022-11-05T18:32:48.726Z,80.76
2022-11-05T18:35:16.178Z,80.47
2022-11-05T18:37:43.859Z,80.94
2022-11-05T18:40:12.016Z,81.63
2022-11-05T18:42:39.679Z,81.62
2022-11-05T18:45:07.956Z,80.82
2022-11-05T18:47:35.511Z,80.73
2022-11-05T18:50:03.200Z,81.26
2022-11-05T18:52:32.273Z,81.75
2022-11-05T18:55:00.043Z,80.42
2022-11-05T18:57:28.013Z,79.55
2022-11-05T18:59:55.463Z,80.15
2022-11-05T19:02:23.101Z,80.85
2022-11-05T19:05:14.424Z,80.52
2022-11-05T19:07:41.584Z,79.82
2022-11-05T19:10:09.351Z,79.72
2022-11-05T19:12:36.810Z,80.39
2022-11-05T19:15:04.845Z,80.87
2022-11-05T19:17:32.952Z,79.63
2022-11-05T19:20:00.816Z,79.04
2022-11-05T19:22:28.484Z,79.63
2022-11-05T19:24:55.936Z,80.39
2022-11-05T19:27:23.801Z,79.98
2022-11-05T19:29:53.613Z,79.44
2022-11-05T19:32:23.770Z,79.11
2022-11-05T19:34:51.292Z,79.77
2022-11-05T19:37:19.569Z,80.26
2022-11-05T19:39:47.130Z,79.87
2022-11-05T19:42:14.605Z,78.71
2022-11-05T19:44:43.479Z,78.71
2022-11-05T19:47:11.049Z,79.26
2022-11-05T19:49:38.806Z,79.73
2022-11-05T19:52:07.209Z,78.61
2022-11-05T19:54:36.375Z,78.11
2022-11-05T19:57:03.943Z,78.23
2022-11-05T19:59:31.491Z,78.89
2022-11-05T20:01:59.104Z,78.87
2022-11-05T20:04:26.713Z,77.61
2022-11-05T20:06:54.179Z,77.45
2022-11-05T20:09:23.490Z,78.01
2022-11-05T20:11:52.841Z,78.68
2022-11-05T20:14:20.332Z,77.85
2022-11-05T20:16:48.407Z,76.73
2022-11-05T20:19:17.946Z,76.77
2022-11-05T20:21:45.672Z,77.01
2022-11-05T20:24:17.495Z,77.96
2022-11-05T20:26:49.805Z,77.65
2022-11-05T20:29:17.365Z,76.73
2022-11-05T20:31:44.815Z,76.30
2022-11-05T20:34:12.274Z,76.64
2022-11-05T20:36:39.931Z,77.15
2022-11-05T20:39:07.800Z,77.38
2022-11-05T20:41:35.255Z,76.51
2022-11-05T20:44:02.712Z,76.20
2022-11-05T20:46:30.380Z,75.94
2022-11-05T20:48:57.832Z,76.87
2022-11-05T20:51:26.032Z,77.09
2022-11-05T20:53:57.974Z,75.86
2022-11-05T20:56:30.293Z,75.30
2022-11-05T20:58:58.785Z,74.88
2022-11-05T21:01:27.965Z,75.71
2022-11-05T21:03:55.578Z,76.47
2022-11-05T21:06:23.141Z,76.04
2022-11-05T21:08:51.214Z,74.64
2022-11-05T21:11:19.284Z,74.33
2022-11-05T21:13:47.045Z,74.75
2022-11-05T21:16:18.000Z,75.42
2022-11-05T21:18:46.578Z,76.23
2022-11-05T21:21:16.628Z,75.73
2022-11-05T21:23:44.143Z,74.59
2022-11-05T21:26:14.056Z,74.42
2022-11-05T21:28:42.025Z,74.77
2022-11-05T21:31:09.605Z,75.56
2022-11-05T21:33:37.376Z,75.53
2022-11-05T21:36:10.916Z,73.72
2022-11-05T21:38:38.507Z,73.43
2022-11-05T21:41:06.278Z,73.68
2022-11-05T21:43:33.871Z,74.54
2022-11-05T21:46:02.547Z,75.33
2022-11-05T21:48:30.393Z,75.07
2022-11-05T21:51:16.593Z,74.10
2022-11-05T21:54:02.889Z,73.79
2022-11-05T21:56:49.081Z,74.17
2022-11-05T21:59:40.603Z,75.04
2022-11-05T22:02:09.047Z,74.64
2022-11-05T22:04:40.459Z,73.63
2022-11-05T22:07:08.700Z,73.18
2022-11-05T22:09:36.470Z,73.57
2022-11-05T22:12:04.448Z,74.29
2022-11-05T22:14:32.096Z,75.01
2022-11-05T22:16:59.765Z,74.16
2022-11-05T22:19:27.316Z,72.78
2022-11-05T22:21:54.773Z,72.85
2022-11-05T22:24:23.827Z,73.30
2022-11-05T22:26:51.325Z,73.96
2022-11-05T22:29:18.779Z,74.30
2022-11-05T22:31:46.338Z,73.66
2022-11-05T22:34:13.805Z,73.03
2022-11-05T22:36:41.271Z,72.83
2022-11-05T22:39:08.819Z,73.35
2022-11-05T22:41:36.319Z,74.11
2022-11-05T22:44:04.341Z,73.90
2022-11-05T22:46:32.420Z,72.92
2022-11-05T22:49:03.279Z,73.01
2022-11-05T22:51:32.239Z,73.09
2022-11-05T22:54:00.017Z,73.73
2022-11-05T22:56:29.765Z,74.09
2022-11-05T22:58:57.491Z,73.36
2022-11-05T23:01:25.609Z,72.22
2022-11-05T23:03:55.482Z,71.89
2022-11-05T23:06:43.612Z,72.72
2022-11-05T23:09:38.097Z,73.34
2022-11-05T23:12:08.015Z,74.03
2022-11-05T23:14:37.019Z,72.75
2022-11-05T23:17:23.201Z,71.42
2022-11-05T23:20:09.404Z,71.61
2022-11-05T23:22:55.702Z,72.19
2022-11-05T23:25:23.897Z,72.92
2022-11-05T23:27:52.624Z,73.64
2022-11-05T23:30:25.259Z,73.27
2022-11-05T23:32:54.842Z,71.49
2022-11-05T23:35:42.266Z,71.58
2022-11-05T23:38:28.360Z,71.81
2022-11-05T23:41:19.477Z,72.34
2022-11-05T23:44:05.767Z,73.23
2022-11-05T23:46:52.073Z,72.56
2022-11-05T23:49:19.730Z,71.33
2022-11-05T23:51:47.184Z,71.47
2022-11-05T23:54:14.848Z,71.90
2022-11-05T23:56:42.305Z,72.41
2022-11-05T23:59:09.761Z,73.05
